Decoded Metar for LFMY (SALON in FRANCE) (IATA:N/A) | Meteo·Mobile Aviation Weather
aviador You're here:

LFMY Decoded Metar

SALON in FRANCE
Report Time2018-09-21 10:00:00
UTC Time2018-09-21 10:34:28
Flight Rules vfr VFR
Wind230° at 08 kt
W.Decomp.*RWY 16: 2.9 kt HW 7.5 kt RCW
W.Rank230° ranks 26
Current wind is above 230° avg. (5.2)
Visibility9999 m
Phenomena:N/A
Clouds:N/A
Expected CloudBase > 6,800 ft AGL from Temp-Dew spread
CeilingNone
Temp30°C (ISA +15)
Dew Point13°C (35% RH)
Heat Index29.2°C
AAT28.0°C
QNH1017 hPa
Density Alt2,031 ft
Elevation197 ft
Report Wrong Elevation
Raw Report
METAR LFMY 211000Z AUTO 23008KT 200V270 CAVOK 30/13 Q1017 NOSIG=

Extra information for LFMY:More info

Metar Taf Metar & Taf Last 4 Metars F.Rules Stats Wind Profile Meteogram Temp Stats Airport Information Weather charts Add Link Nearby VenuesMetar ALERT Operation Metar Decoded Social comments